createdAt,value
2022-09-29T00:03:09.082Z,5.80
2022-09-29T00:08:13.932Z,5.80
2022-09-29T00:13:17.395Z,5.70
2022-09-29T00:18:20.190Z,5.70
2022-09-29T00:23:26.020Z,5.60
2022-09-29T00:28:29.164Z,5.80
2022-09-29T00:33:32.965Z,5.70
2022-09-29T00:38:37.348Z,5.60
2022-09-29T00:43:53.171Z,5.40
2022-09-29T00:48:59.227Z,5.40
2022-09-29T00:54:04.305Z,5.50
2022-09-29T00:59:10.705Z,5.50
2022-09-29T01:04:18.134Z,5.20
2022-09-29T01:09:27.369Z,5.10
2022-09-29T01:14:32.770Z,5.30
2022-09-29T01:19:47.093Z,5.50
2022-09-29T01:25:05.779Z,5.40
2022-09-29T01:30:19.000Z,5.30
2022-09-29T01:35:31.325Z,5.20
2022-09-29T01:40:39.864Z,5.10
2022-09-29T01:45:50.035Z,5.30
2022-09-29T01:50:57.764Z,5.20
2022-09-29T01:56:06.365Z,5.20
2022-09-29T02:01:13.639Z,5.10
2022-09-29T02:06:22.426Z,5.00
2022-09-29T02:11:26.701Z,4.80
2022-09-29T02:16:32.091Z,4.90
2022-09-29T02:21:36.313Z,4.80
2022-09-29T02:26:41.459Z,4.90
2022-09-29T02:31:45.253Z,4.90
2022-09-29T02:36:59.807Z,4.90
2022-09-29T02:42:11.962Z,4.70
2022-09-29T02:47:38.537Z,4.80
2022-09-29T02:52:52.915Z,4.80
2022-09-29T02:58:00.605Z,4.90
2022-09-29T03:03:03.326Z,5.10
2022-09-29T03:08:07.500Z,5.20
2022-09-29T03:13:10.675Z,5.40
2022-09-29T03:18:13.421Z,5.50
2022-09-29T03:23:17.505Z,5.60
2022-09-29T03:28:20.304Z,5.60
2022-09-29T03:33:23.307Z,5.70
2022-09-29T03:38:27.400Z,5.70
2022-09-29T03:43:30.189Z,5.70
2022-09-29T03:48:35.061Z,5.80
2022-09-29T03:53:39.157Z,5.90
2022-09-29T03:58:42.003Z,5.90
2022-09-29T04:03:44.842Z,6.00
2022-09-29T04:08:49.434Z,6.00
2022-09-29T04:13:52.512Z,5.90
2022-09-29T04:18:55.677Z,5.90
2022-09-29T04:23:59.953Z,5.80
2022-09-29T04:29:02.747Z,5.70
2022-09-29T04:34:05.696Z,5.90
2022-09-29T04:39:09.850Z,5.90
2022-09-29T04:44:12.749Z,6.20
2022-09-29T04:49:15.528Z,6.30
2022-09-29T04:54:20.774Z,6.20
2022-09-29T04:59:23.645Z,6.20
2022-09-29T05:04:26.409Z,6.20
2022-09-29T05:09:33.686Z,6.30
2022-09-29T05:14:36.669Z,6.40
2022-09-29T05:19:39.448Z,6.50
2022-09-29T05:24:43.493Z,6.60
2022-09-29T05:29:46.290Z,6.60
2022-09-29T05:34:50.362Z,6.60
2022-09-29T05:39:54.434Z,6.60
2022-09-29T05:44:57.143Z,6.70
2022-09-29T05:49:59.971Z,6.90
2022-09-29T05:55:04.483Z,6.80
2022-09-29T06:00:09.085Z,6.80
2022-09-29T06:05:11.848Z,7.00
2022-09-29T06:10:15.986Z,7.20
2022-09-29T06:15:18.848Z,7.40
2022-09-29T06:20:21.579Z,7.60
2022-09-29T06:25:25.690Z,7.90
2022-09-29T06:30:28.383Z,8.00
2022-09-29T06:35:48.746Z,7.90
2022-09-29T06:40:54.948Z,7.80
2022-09-29T06:45:57.762Z,7.80
2022-09-29T06:51:09.994Z,8.00
2022-09-29T06:56:14.546Z,8.60
2022-09-29T07:01:17.408Z,9.60
2022-09-29T07:06:20.711Z,10.50
2022-09-29T07:11:26.255Z,10.70
2022-09-29T07:16:29.015Z,10.80
2022-09-29T07:21:31.841Z,10.90
2022-09-29T07:26:36.259Z,10.70
2022-09-29T07:31:49.961Z,10.50
2022-09-29T07:36:53.991Z,10.20
2022-09-29T07:41:58.659Z,10.10
2022-09-29T07:47:01.828Z,12.10
2022-09-29T07:52:04.566Z,17.40
2022-09-29T07:57:08.666Z,20.80
2022-09-29T08:02:12.209Z,19.80
2022-09-29T08:07:14.962Z,19.90
2022-09-29T08:12:19.067Z,23.00
2022-09-29T08:17:21.911Z,24.20
2022-09-29T08:22:24.740Z,26.40
2022-09-29T08:27:29.325Z,26.20
2022-09-29T08:32:32.066Z,27.10
2022-09-29T08:37:35.255Z,27.30
2022-09-29T08:42:49.460Z,27.60
2022-09-29T08:47:53.736Z,26.00
2022-09-29T08:53:00.171Z,27.60
2022-09-29T08:58:04.267Z,27.90
2022-09-29T09:03:56.273Z,32.00
2022-09-29T09:09:27.818Z,36.00
2022-09-29T09:14:49.450Z,35.60
2022-09-29T09:20:10.243Z,36.30
2022-09-29T09:25:24.938Z,38.50
2022-09-29T09:30:35.815Z,39.60
2022-09-29T09:35:54.583Z,37.80
2022-09-29T09:41:00.145Z,33.30
2022-09-29T09:46:13.708Z,36.60
2022-09-29T09:51:35.101Z,37.80
2022-09-29T09:56:51.096Z,39.50
2022-09-29T10:01:55.529Z,39.80
2022-09-29T10:06:59.315Z,42.50
2022-09-29T10:12:02.754Z,39.30
2022-09-29T10:17:12.326Z,38.90
2022-09-29T10:22:16.181Z,32.00
2022-09-29T10:27:21.694Z,33.00
2022-09-29T10:32:36.344Z,29.90
2022-09-29T10:37:42.415Z,25.00
2022-09-29T10:42:48.653Z,21.90
2022-09-29T10:48:10.986Z,20.80
2022-09-29T10:53:23.390Z,21.80
2022-09-29T10:58:44.747Z,25.00
2022-09-29T11:04:01.426Z,28.10
2022-09-29T11:09:07.032Z,30.00
2022-09-29T11:14:26.032Z,36.10
2022-09-29T11:19:31.869Z,34.10
2022-09-29T11:24:55.982Z,29.70
2022-09-29T11:30:04.751Z,25.50
2022-09-29T11:35:19.509Z,22.80
2022-09-29T11:40:31.509Z,21.50
2022-09-29T11:45:42.984Z,21.00
2022-09-29T11:50:54.771Z,21.40
2022-09-29T11:56:19.276Z,21.60
2022-09-29T12:01:34.499Z,21.40
2022-09-29T12:06:54.158Z,21.10
2022-09-29T12:12:24.675Z,20.30
2022-09-29T12:17:32.472Z,19.60
2022-09-29T12:22:37.446Z,19.30
2022-09-29T12:27:45.295Z,19.70
2022-09-29T12:32:55.666Z,20.40
2022-09-29T12:38:07.485Z,21.20
2022-09-29T12:43:15.692Z,23.10
2022-09-29T12:48:38.079Z,22.40
2022-09-29T12:53:54.987Z,20.10
2022-09-29T12:59:02.979Z,19.20
2022-09-29T13:04:35.072Z,18.80
2022-09-29T13:10:02.070Z,18.80
2022-09-29T13:15:21.630Z,18.70
2022-09-29T13:20:47.764Z,19.10
2022-09-29T13:26:07.023Z,19.60
2022-09-29T13:31:14.324Z,20.00
2022-09-29T13:36:25.303Z,19.60
2022-09-29T13:41:38.915Z,19.30
2022-09-29T13:46:41.819Z,19.20
2022-09-29T13:51:49.942Z,19.50
2022-09-29T13:57:28.442Z,20.00
2022-09-29T14:02:36.162Z,21.00
2022-09-29T14:07:44.497Z,21.30
2022-09-29T14:12:55.622Z,20.90
2022-09-29T14:18:03.271Z,24.70
2022-09-29T14:23:07.234Z,30.90
2022-09-29T14:28:14.019Z,33.70
2022-09-29T14:33:20.759Z,33.70
2022-09-29T14:38:28.339Z,34.70
2022-09-29T14:43:40.464Z,30.20
2022-09-29T14:49:21.816Z,25.40
2022-09-29T14:54:37.098Z,23.10
2022-09-29T14:59:56.335Z,21.20
2022-09-29T15:04:59.337Z,19.90
2022-09-29T15:10:02.446Z,19.00
2022-09-29T15:15:08.295Z,18.20
2022-09-29T15:20:19.873Z,19.80
2022-09-29T15:25:29.397Z,20.80
2022-09-29T15:30:35.048Z,22.20
2022-09-29T15:35:44.601Z,21.40
2022-09-29T15:40:54.499Z,19.80
2022-09-29T15:46:00.716Z,18.60
2022-09-29T15:51:04.220Z,17.90
2022-09-29T15:56:07.284Z,17.40
2022-09-29T16:01:13.970Z,16.60
2022-09-29T16:06:26.345Z,16.20
2022-09-29T16:11:32.979Z,15.80
2022-09-29T16:16:42.306Z,15.40
2022-09-29T16:21:45.271Z,15.20
2022-09-29T16:26:50.363Z,14.90
2022-09-29T16:31:55.391Z,14.70
2022-09-29T16:37:01.569Z,14.50
2022-09-29T16:42:06.787Z,14.20
2022-09-29T16:47:17.015Z,13.90
2022-09-29T16:52:25.954Z,13.70
2022-09-29T16:57:30.680Z,13.50
2022-09-29T17:02:34.845Z,13.40
2022-09-29T17:07:41.575Z,13.20
2022-09-29T17:12:44.538Z,13.10
2022-09-29T17:17:50.879Z,12.90
2022-09-29T17:22:54.256Z,12.80
2022-09-29T17:28:15.225Z,12.60
2022-09-29T17:33:20.667Z,12.50
2022-09-29T17:38:23.934Z,12.10
2022-09-29T17:43:27.579Z,12.00
2022-09-29T17:48:33.519Z,12.10
2022-09-29T17:53:36.244Z,12.20
2022-09-29T17:58:39.072Z,12.40
2022-09-29T18:03:43.892Z,12.40
2022-09-29T18:08:49.310Z,12.40
2022-09-29T18:13:56.068Z,12.40
2022-09-29T18:19:00.190Z,12.40
2022-09-29T18:24:03.036Z,12.30
2022-09-29T18:29:15.607Z,12.30
2022-09-29T18:34:22.066Z,12.30
2022-09-29T18:39:25.031Z,12.20
2022-09-29T18:44:29.922Z,12.00
2022-09-29T18:49:34.001Z,11.80
2022-09-29T18:54:37.061Z,11.70
2022-09-29T18:59:39.976Z,11.70
2022-09-29T19:04:44.188Z,11.90
2022-09-29T19:09:47.050Z,12.20
2022-09-29T19:14:49.841Z,12.20
2022-09-29T19:19:53.922Z,12.10
2022-09-29T19:24:56.650Z,12.00
2022-09-29T19:30:03.270Z,11.90
2022-09-29T19:35:10.262Z,11.90
2022-09-29T19:40:17.621Z,11.90
2022-09-29T19:45:21.555Z,11.80
2022-09-29T19:50:43.998Z,11.70
2022-09-29T19:55:47.246Z,11.60
2022-09-29T20:00:50.048Z,11.70
2022-09-29T20:05:59.786Z,11.60
2022-09-29T20:11:10.866Z,11.50
2022-09-29T20:16:17.282Z,11.40
2022-09-29T20:21:21.572Z,11.40
2022-09-29T20:26:25.775Z,11.30
2022-09-29T20:31:33.210Z,11.10
2022-09-29T20:36:37.395Z,11.10
2022-09-29T20:41:41.873Z,10.90
2022-09-29T20:46:44.651Z,10.60
2022-09-29T20:51:48.941Z,10.40
2022-09-29T20:56:52.072Z,10.10
2022-09-29T21:01:55.646Z,9.80
2022-09-29T21:06:59.823Z,9.90
2022-09-29T21:12:03.337Z,10.00
2022-09-29T21:17:06.098Z,10.00
2022-09-29T21:22:10.442Z,10.10
2022-09-29T21:27:13.202Z,10.20
2022-09-29T21:32:15.967Z,10.00
2022-09-29T21:37:20.048Z,9.90
2022-09-29T21:42:22.795Z,9.70
2022-09-29T21:47:46.138Z,9.60
2022-09-29T21:52:50.265Z,9.60
2022-09-29T21:57:54.211Z,9.50
2022-09-29T22:02:57.013Z,9.30
2022-09-29T22:08:01.271Z,9.20
2022-09-29T22:13:04.012Z,9.10
2022-09-29T22:18:06.770Z,9.10
2022-09-29T22:23:10.941Z,9.10
2022-09-29T22:28:14.121Z,9.10
2022-09-29T22:33:17.085Z,9.10
2022-09-29T22:38:21.196Z,9.10
2022-09-29T22:43:24.071Z,9.10
2022-09-29T22:48:27.005Z,9.10
2022-09-29T22:53:31.212Z,9.10
2022-09-29T22:58:33.952Z,9.20
2022-09-29T23:03:36.915Z,9.10
2022-09-29T23:08:41.331Z,9.20
2022-09-29T23:13:44.736Z,9.20
2022-09-29T23:18:47.814Z,9.10
2022-09-29T23:23:56.134Z,9.10
2022-09-29T23:28:59.872Z,9.20
2022-09-29T23:34:02.623Z,9.10
2022-09-29T23:39:13.838Z,9.00
2022-09-29T23:44:18.948Z,8.90
2022-09-29T23:49:23.504Z,8.80
2022-09-29T23:54:29.273Z,8.90
2022-09-29T23:59:31.966Z,8.90
